Time;durP1;ratioP1;P1;durP2;ratioP2;P2;SDS_P1;SDS_P2;PMS_P1;PMS_P2;Temp;Humidity;BMP_temperature;BMP_pressure;BME280_temperature;BME280_humidity;BME280_pressure;Samples;Min_cycle;Max_cycle;Signal;HPM_P1;HPM_P2
2023/03/27 00:01:53;;;;;;;;;;;;;;;23.78;29.54;96570.84;5049020;28;19920;-83
2023/03/27 00:04:20;;;;;;;;;;;;;;;23.92;29.72;96564.59;5049639;28;19935;-83
2023/03/27 00:06:47;;;;;;;;;;;;;;;24.07;29.49;96570.34;5046304;28;20725;-83
2023/03/27 00:09:15;;;;;;;;;;;;;;;24.41;29.01;96565.09;5047937;28;19927;-83
2023/03/27 00:11:42;;;;;;;;;;;;;;;24.39;28.92;96578.03;5046883;28;19921;-83
2023/03/27 00:14:08;;;;;;;;;;;;;;;24.14;29.07;96570.78;5050212;28;19925;-83
2023/03/27 00:16:34;;;;;;;;;;;;;;;24.21;30.06;96572.50;5048307;28;19928;-83
2023/03/27 00:19:00;;;;;;;;;;;;;;;24.61;28.82;96564.56;5047936;28;19931;-83
2023/03/27 00:21:27;;;;;;;;;;;;;;;24.79;28.63;96564.50;5043949;28;19979;-83
2023/03/27 00:23:53;;;;;;;;;;;;;;;25.15;28.30;96569.94;5062432;28;20028;-83
2023/03/27 00:26:20;;;;;;;;;;;;;;;25.41;27.79;96570.25;5049379;28;20347;-83
2023/03/27 00:28:47;;;;;;;;;;;;;;;25.65;27.56;96578.69;5048006;28;19924;-83
2023/03/27 00:31:14;;;;;;;;;;;;;;;25.83;27.42;96567.28;5043937;28;19925;-83
2023/03/27 00:33:40;;;;;;;;;;;;;;;25.78;27.58;96571.53;5050755;28;20020;-83
2023/03/27 00:36:07;;;;;;;;;;;;;;;25.62;27.10;96571.19;5047625;28;19952;-83
2023/03/27 00:38:33;;;;;;;;;;;;;;;25.40;27.61;96572.25;5048599;28;19953;-83
2023/03/27 00:40:59;;;;;;;;;;;;;;;25.30;27.74;96565.16;5046891;28;19967;-83
2023/03/27 00:43:32;;;;;;;;;;;;;;;25.16;27.74;96567.88;5052232;28;20011;-83
2023/03/27 00:46:01;;;;;;;;;;;;;;;25.18;27.64;96560.53;5045904;28;19929;-83
2023/03/27 00:48:29;;;;;;;;;;;;;;;24.77;28.50;96550.19;5052217;28;20021;-82
2023/03/27 00:50:56;;;;;;;;;;;;;;;24.29;29.17;96549.25;5052918;28;19982;-83
2023/03/27 00:53:24;;;;;;;;;;;;;;;24.07;29.24;96542.28;5055026;28;19928;-83
2023/03/27 00:55:52;;;;;;;;;;;;;;;24.13;29.28;96546.81;5053630;28;19921;-83
2023/03/27 00:58:38;;;;;;;;;;;;;;;24.33;28.77;96546.28;5047303;28;20016;-83
2023/03/27 01:01:06;;;;;;;;;;;;;;;24.43;28.68;96537.38;5045364;28;19948;-82
2023/03/27 01:03:32;;;;;;;;;;;;;;;24.22;29.17;96540.41;5050962;28;19952;-83
2023/03/27 01:06:00;;;;;;;;;;;;;;;24.02;29.43;96540.88;5050440;28;19917;-83
2023/03/27 01:08:28;;;;;;;;;;;;;;;24.14;29.12;96539.16;5051338;28;19920;-83
2023/03/27 01:11:12;;;;;;;;;;;;;;;24.17;29.29;96541.03;5051811;28;20372;-83
2023/03/27 01:13:38;;;;;;;;;;;;;;;23.96;29.57;96529.53;5050965;28;19974;-82
2023/03/27 01:16:16;;;;;;;;;;;;;;;23.74;29.98;96530.94;5044321;28;19929;-83
2023/03/27 01:18:52;;;;;;;;;;;;;;;23.65;29.87;96519.75;5053366;28;19928;-83
2023/03/27 01:21:37;;;;;;;;;;;;;;;23.46;30.21;96521.78;5051275;28;19951;-82
2023/03/27 01:24:10;;;;;;;;;;;;;;;23.85;29.54;96506.81;5054889;28;19924;-83
2023/03/27 01:26:56;;;;;;;;;;;;;;;23.95;29.52;96510.38;5066426;28;20337;-83
2023/03/27 01:29:32;;;;;;;;;;;;;;;23.74;29.61;96502.94;5045574;28;19921;-83
2023/03/27 01:32:16;;;;;;;;;;;;;;;23.56;30.06;96502.97;5046261;28;20285;-82
2023/03/27 01:35:00;;;;;;;;;;;;;;;23.71;29.80;96501.84;5044164;28;19924;-82
2023/03/27 01:37:46;;;;;;;;;;;;;;;23.33;30.15;96493.94;5051239;28;20062;-83
2023/03/27 01:40:12;;;;;;;;;;;;;;;23.42;30.24;96473.56;5051935;28;19917;-82
2023/03/27 01:42:41;;;;;;;;;;;;;;;23.65;29.72;96475.72;5049521;28;19920;-82
2023/03/27 01:45:10;;;;;;;;;;;;;;;23.68;29.74;96469.19;5052460;28;20441;-82
2023/03/27 01:47:43;;;;;;;;;;;;;;;23.84;29.58;96474.44;5048094;28;19943;-82
2023/03/27 01:50:14;;;;;;;;;;;;;;;23.88;29.05;96474.25;5055167;28;19967;-82
2023/03/27 01:52:43;;;;;;;;;;;;;;;23.93;28.63;96476.41;5053569;28;20059;-82
2023/03/27 01:55:12;;;;;;;;;;;;;;;23.38;29.87;96470.16;5050440;28;19928;-82
2023/03/27 01:57:47;;;;;;;;;;;;;;;23.40;30.15;96466.88;5054252;28;20432;-82
2023/03/27 02:00:20;;;;;;;;;;;;;;;23.24;30.24;96459.56;5050020;28;19990;-82
2023/03/27 02:02:54;;;;;;;;;;;;;;;23.10;30.28;96455.34;5055438;28;20403;-82
2023/03/27 02:05:30;;;;;;;;;;;;;;;22.97;30.82;96456.72;5053616;28;19921;-82
2023/03/27 02:07:59;;;;;;;;;;;;;;;22.99;30.18;96457.81;5051109;28;19921;-82
2023/03/27 02:10:30;;;;;;;;;;;;;;;22.98;30.50;96453.47;5048178;28;19928;-82
2023/03/27 02:13:02;;;;;;;;;;;;;;;22.50;30.82;96445.91;5048023;28;20872;-82
2023/03/27 02:15:30;;;;;;;;;;;;;;;21.82;32.36;96441.44;5052167;28;19925;-82
2023/03/27 02:18:03;;;;;;;;;;;;;;;22.07;31.69;96430.09;5055157;28;19917;-82
2023/03/27 02:20:31;;;;;;;;;;;;;;;22.40;31.14;96433.94;5051410;28;19920;-82
2023/03/27 02:22:59;;;;;;;;;;;;;;;22.70;30.53;96426.72;5053317;28;19943;-82
2023/03/27 02:25:27;;;;;;;;;;;;;;;22.03;31.41;96430.22;5044698;28;19920;-82
2023/03/27 02:28:03;;;;;;;;;;;;;;;22.22;31.56;96439.44;5051259;28;19920;-82
2023/03/27 02:30:33;;;;;;;;;;;;;;;21.85;32.29;96444.13;5053189;28;19921;-82
2023/03/27 02:33:05;;;;;;;;;;;;;;;22.28;31.54;96440.44;5072150;28;19920;-83
2023/03/27 02:35:49;;;;;;;;;;;;;;;22.80;30.58;96441.50;5068147;28;19929;-83
2023/03/27 02:38:29;;;;;;;;;;;;;;;22.90;30.47;96440.25;5049290;28;19928;-82
2023/03/27 02:41:08;;;;;;;;;;;;;;;22.72;30.48;96443.03;5052681;28;19920;-82
2023/03/27 02:43:42;;;;;;;;;;;;;;;22.58;30.48;96442.38;5052633;28;19920;-83
2023/03/27 02:46:27;;;;;;;;;;;;;;;22.72;30.84;96449.41;5047118;28;19932;-82
2023/03/27 02:48:58;;;;;;;;;;;;;;;22.82;30.32;96447.41;5048596;28;20005;-83
2023/03/27 02:51:29;;;;;;;;;;;;;;;22.96;30.68;96444.78;5053693;28;19917;-82
2023/03/27 02:53:58;;;;;;;;;;;;;;;22.98;30.26;96449.91;5049556;28;20007;-83
2023/03/27 02:56:26;;;;;;;;;;;;;;;23.12;30.23;96452.88;5047578;28;19925;-83
2023/03/27 02:58:56;;;;;;;;;;;;;;;23.12;30.08;96446.47;5053190;28;19920;-82
2023/03/27 03:01:25;;;;;;;;;;;;;;;23.22;29.56;96448.03;5048966;28;19990;-83
2023/03/27 03:03:58;;;;;;;;;;;;;;;22.82;30.18;96447.41;5052089;28;19924;-83
2023/03/27 03:06:30;;;;;;;;;;;;;;;22.49;30.79;96452.75;5051398;28;19925;-82
2023/03/27 03:09:04;;;;;;;;;;;;;;;22.57;31.31;96454.78;5047785;28;19921;-83
2023/03/27 03:11:30;;;;;;;;;;;;;;;22.94;30.60;96455.63;5045656;28;19975;-83
2023/03/27 03:13:56;;;;;;;;;;;;;;;23.32;29.79;96458.75;5050627;28;19920;-83
2023/03/27 03:16:22;;;;;;;;;;;;;;;22.47;32.11;96458.03;5052895;28;20003;-82
2023/03/27 03:18:48;;;;;;;;;;;;;;;22.70;30.31;96468.69;5046726;28;20020;-83
2023/03/27 03:21:14;;;;;;;;;;;;;;;22.42;31.25;96462.22;5051056;28;19976;-82
2023/03/27 03:23:40;;;;;;;;;;;;;;;22.93;30.58;96470.88;5050641;28;19924;-83
2023/03/27 03:26:07;;;;;;;;;;;;;;;22.94;30.69;96469.63;5054590;28;19923;-83
2023/03/27 03:28:36;;;;;;;;;;;;;;;23.39;29.47;96471.69;5047789;28;20031;-82
2023/03/27 03:31:02;;;;;;;;;;;;;;;23.10;30.30;96465.78;5046907;28;19927;-82
2023/03/27 03:33:28;;;;;;;;;;;;;;;23.07;30.38;96473.06;5051112;28;19927;-83
2023/03/27 03:35:57;;;;;;;;;;;;;;;23.32;29.66;96469.97;5052009;28;19924;-83
2023/03/27 03:38:23;;;;;;;;;;;;;;;23.18;30.17;96467.78;5053171;28;19970;-83
2023/03/27 03:40:50;;;;;;;;;;;;;;;23.36;29.72;96467.81;5049558;28;19936;-82
2023/03/27 03:43:16;;;;;;;;;;;;;;;22.96;30.66;96466.38;5047856;28;19925;-83
2023/03/27 03:45:42;;;;;;;;;;;;;;;23.03;30.46;96471.69;5048125;28;19924;-82
2023/03/27 03:48:08;;;;;;;;;;;;;;;23.02;30.54;96461.72;5050144;28;19920;-82
2023/03/27 03:50:34;;;;;;;;;;;;;;;22.97;30.26;96471.50;5050647;28;20391;-82
2023/03/27 03:53:00;;;;;;;;;;;;;;;22.95;30.26;96464.81;5049828;28;19924;-82
2023/03/27 03:55:26;;;;;;;;;;;;;;;22.61;30.90;96461.03;5048191;28;19974;-82
2023/03/27 03:57:52;;;;;;;;;;;;;;;22.66;31.02;96465.25;5054154;28;20011;-83
2023/03/27 04:00:18;;;;;;;;;;;;;;;22.55;30.56;96462.84;5048037;28;19921;-82
2023/03/27 04:02:47;;;;;;;;;;;;;;;22.58;30.99;96461.94;5047618;28;19928;-82
2023/03/27 04:05:13;;;;;;;;;;;;;;;22.69;30.77;96459.50;5052847;28;19943;-82
2023/03/27 04:07:39;;;;;;;;;;;;;;;22.83;30.10;96449.72;5065914;28;20364;-82
2023/03/27 04:10:07;;;;;;;;;;;;;;;22.67;30.42;96455.59;5061796;28;19920;-82
2023/03/27 04:12:33;;;;;;;;;;;;;;;22.38;31.26;96446.81;5049099;28;19921;-82
2023/03/27 04:14:59;;;;;;;;;;;;;;;22.42;30.96;96453.81;5051175;28;20274;-82
2023/03/27 04:17:25;;;;;;;;;;;;;;;22.44;31.12;96451.34;5050449;28;19931;-82
2023/03/27 04:19:53;;;;;;;;;;;;;;;22.51;30.95;96453.84;5052336;28;19921;-82
2023/03/27 04:22:21;;;;;;;;;;;;;;;23.04;30.18;96446.00;5053654;28;19917;-82
2023/03/27 04:24:49;;;;;;;;;;;;;;;23.24;30.00;96449.09;5041798;28;19965;-82
2023/03/27 04:27:16;;;;;;;;;;;;;;;23.30;29.98;96440.88;5046458;28;19917;-82
2023/03/27 04:29:46;;;;;;;;;;;;;;;23.38;29.49;96444.16;5052635;28;19921;-82
2023/03/27 04:32:12;;;;;;;;;;;;;;;23.08;30.00;96445.88;5051187;28;19917;-82
2023/03/27 04:34:39;;;;;;;;;;;;;;;23.02;30.16;96445.69;5054839;28;19923;-82
2023/03/27 04:37:05;;;;;;;;;;;;;;;23.19;30.02;96440.56;5050353;28;19925;-83
2023/03/27 04:39:38;;;;;;;;;;;;;;;23.31;29.23;96451.59;5052928;28;20236;-84
2023/03/27 04:42:05;;;;;;;;;;;;;;;22.87;30.41;96452.38;5054126;28;19924;-84
2023/03/27 04:44:31;;;;;;;;;;;;;;;22.84;30.64;96442.13;5054198;28;19921;-85
2023/03/27 04:47:00;;;;;;;;;;;;;;;22.80;30.33;96447.09;5049343;28;19947;-84
2023/03/27 04:49:30;;;;;;;;;;;;;;;22.83;30.46;96451.75;5050398;28;19966;-84
2023/03/27 04:51:56;;;;;;;;;;;;;;;22.71;30.38;96456.22;5048697;28;20372;-84
2023/03/27 04:54:22;;;;;;;;;;;;;;;22.86;30.41;96448.81;5051509;28;19921;-84
2023/03/27 04:56:48;;;;;;;;;;;;;;;22.82;30.74;96455.78;5052729;28;19966;-84
2023/03/27 04:59:14;;;;;;;;;;;;;;;23.01;29.89;96444.13;5048550;28;20384;-84
2023/03/27 05:01:40;;;;;;;;;;;;;;;22.64;30.86;96443.31;5047554;28;19975;-85
2023/03/27 05:04:07;;;;;;;;;;;;;;;22.84;30.75;96442.91;5055321;28;20015;-83
2023/03/27 05:06:33;;;;;;;;;;;;;;;22.77;30.88;96453.59;5051068;28;19928;-84
2023/03/27 05:08:59;;;;;;;;;;;;;;;23.11;29.87;96451.28;5050024;28;19928;-84
2023/03/27 05:11:25;;;;;;;;;;;;;;;23.16;29.49;96439.47;5051576;28;21735;-86
2023/03/27 05:13:51;;;;;;;;;;;;;;;23.05;29.31;96446.78;5054239;28;19925;-85
2023/03/27 05:16:17;;;;;;;;;;;;;;;22.73;30.06;96439.78;5051431;28;19932;-85
2023/03/27 05:18:46;;;;;;;;;;;;;;;22.30;31.67;96440.75;5044607;28;19937;-85
2023/03/27 05:21:12;;;;;;;;;;;;;;;22.74;30.72;96443.34;5053002;28;20011;-83
2023/03/27 05:23:38;;;;;;;;;;;;;;;22.69;31.05;96453.13;5054166;28;20061;-83
2023/03/27 05:26:04;;;;;;;;;;;;;;;22.85;30.67;96452.06;5055439;28;19955;-83
2023/03/27 05:28:30;;;;;;;;;;;;;;;23.15;30.27;96445.56;5055862;28;20403;-83
2023/03/27 05:30:56;;;;;;;;;;;;;;;23.32;30.05;96455.97;5056612;28;19963;-83
2023/03/27 05:33:22;;;;;;;;;;;;;;;23.38;29.83;96456.91;5056367;28;19916;-83
2023/03/27 05:35:48;;;;;;;;;;;;;;;23.36;29.96;96459.41;5054292;28;19924;-83
2023/03/27 05:38:14;;;;;;;;;;;;;;;23.26;30.39;96457.06;5055329;28;20380;-83
2023/03/27 05:40:40;;;;;;;;;;;;;;;23.51;29.62;96453.94;5055077;28;19921;-83
2023/03/27 05:43:07;;;;;;;;;;;;;;;23.25;29.58;96463.88;5056091;28;19917;-83
2023/03/27 05:45:33;;;;;;;;;;;;;;;22.73;30.88;96466.97;5056108;28;19931;-83
2023/03/27 05:48:00;;;;;;;;;;;;;;;22.92;30.59;96468.56;5053765;28;20024;-83
2023/03/27 05:50:28;;;;;;;;;;;;;;;23.08;30.36;96465.47;5055062;28;19921;-83
2023/03/27 05:52:57;;;;;;;;;;;;;;;23.20;29.86;96476.50;5055748;28;19916;-83
2023/03/27 05:55:24;;;;;;;;;;;;;;;23.20;29.99;96475.72;5055914;28;19924;-83
2023/03/27 05:57:51;;;;;;;;;;;;;;;23.33;29.66;96473.53;5055206;28;19966;-83
2023/03/27 06:00:23;;;;;;;;;;;;;;;23.18;30.38;96486.59;5055291;28;19971;-83
2023/03/27 06:02:52;;;;;;;;;;;;;;;23.27;30.03;96484.59;5051211;28;20369;-83
2023/03/27 06:05:18;;;;;;;;;;;;;;;23.44;30.30;96481.50;5053784;28;19947;-83
2023/03/27 06:07:45;;;;;;;;;;;;;;;23.41;29.92;96488.81;5055493;28;19923;-83
2023/03/27 06:10:14;;;;;;;;;;;;;;;23.27;29.92;96489.41;5055670;28;20395;-83
2023/03/27 06:12:40;;;;;;;;;;;;;;;22.63;30.04;96496.94;5055049;28;20396;-83
2023/03/27 06:15:07;;;;;;;;;;;;;;;22.00;32.39;96497.44;5054085;28;19932;-83
2023/03/27 06:17:34;;;;;;;;;;;;;;;21.83;31.85;96494.06;5055549;28;19960;-83
2023/03/27 06:20:01;;;;;;;;;;;;;;;21.82;31.91;96494.53;5054471;28;19921;-83
2023/03/27 06:22:27;;;;;;;;;;;;;;;21.94;31.79;96494.47;5054400;28;20284;-82
2023/03/27 06:24:53;;;;;;;;;;;;;;;22.07;31.97;96491.59;5055395;28;19956;-82
2023/03/27 06:27:20;;;;;;;;;;;;;;;22.25;31.28;96499.25;5054448;28;19970;-82
2023/03/27 06:29:47;;;;;;;;;;;;;;;22.00;31.63;96503.03;5052213;28;20380;-82
2023/03/27 06:32:13;;;;;;;;;;;;;;;21.06;34.36;96500.50;5054809;28;19923;-82
2023/03/27 06:34:39;;;;;;;;;;;;;;;20.62;34.40;96509.94;5070959;28;20424;-82
2023/03/27 06:37:05;;;;;;;;;;;;;;;20.65;34.17;96514.63;5066127;28;19921;-82
2023/03/27 06:39:31;;;;;;;;;;;;;;;20.09;35.64;96511.63;5067556;28;19968;-82
2023/03/27 06:41:57;;;;;;;;;;;;;;;20.53;34.65;96509.84;5050790;28;19921;-81
2023/03/27 06:44:23;;;;;;;;;;;;;;;18.77;39.65;96520.50;5054136;28;19920;-82
2023/03/27 06:46:49;;;;;;;;;;;;;;;20.02;35.97;96519.41;5054077;28;19971;-82
2023/03/27 06:49:15;;;;;;;;;;;;;;;20.23;35.32;96516.00;5054877;28;19921;-82
2023/03/27 06:51:41;;;;;;;;;;;;;;;19.85;36.24;96513.13;5039180;28;19924;-82
2023/03/27 06:54:07;;;;;;;;;;;;;;;20.35;35.14;96515.97;5047105;28;20010;-82
2023/03/27 06:56:33;;;;;;;;;;;;;;;20.48;34.63;96516.75;5054897;28;19963;-82
2023/03/27 06:58:59;;;;;;;;;;;;;;;19.16;38.47;96526.59;5053457;28;20011;-82
2023/03/27 07:01:25;;;;;;;;;;;;;;;20.53;35.06;96521.00;5054530;28;20336;-82
2023/03/27 07:03:52;;;;;;;;;;;;;;;19.49;38.13;96538.44;5053478;28;19921;-81
2023/03/27 07:06:18;;;;;;;;;;;;;;;21.09;34.64;96527.50;5051349;28;19917;-82
2023/03/27 07:08:44;;;;;;;;;;;;;;;21.18;34.31;96533.16;5054433;28;19924;-82
2023/03/27 07:11:10;;;;;;;;;;;;;;;20.61;34.83;96534.25;5049572;28;19924;-81
2023/03/27 07:13:36;;;;;;;;;;;;;;;21.23;34.01;96531.81;5054590;28;19917;-81
2023/03/27 07:16:03;;;;;;;;;;;;;;;21.98;32.70;96530.66;5052417;28;19925;-81
2023/03/27 07:18:29;;;;;;;;;;;;;;;19.64;38.51;96539.59;5054336;28;19971;-81
2023/03/27 07:20:55;;;;;;;;;;;;;;;20.20;37.80;96536.34;5053324;28;19921;-81
2023/03/27 07:23:21;;;;;;;;;;;;;;;19.73;36.91;96533.38;5054250;28;19921;-81
2023/03/27 07:25:48;;;;;;;;;;;;;;;19.75;38.35;96542.06;5053549;28;19944;-81
2023/03/27 07:28:17;;;;;;;;;;;;;;;18.98;38.81;96533.84;5068997;28;19923;-81
2023/03/27 07:30:43;;;;;;;;;;;;;;;18.79;40.00;96541.06;5040835;28;20003;-81
2023/03/27 07:33:09;;;;;;;;;;;;;;;18.78;39.42;96536.75;5049451;28;20367;-81
2023/03/27 07:35:45;;;;;;;;;;;;;;;18.22;41.51;96541.66;5042873;28;19973;-81
2023/03/27 07:38:12;;;;;;;;;;;;;;;18.73;39.54;96540.06;5034158;28;19921;-81
2023/03/27 07:40:39;;;;;;;;;;;;;;;18.96;39.64;96547.41;5048760;28;19917;-81
2023/03/27 07:43:06;;;;;;;;;;;;;;;19.16;38.64;96540.50;5052482;28;19921;-82
2023/03/27 07:45:32;;;;;;;;;;;;;;;20.00;36.61;96539.34;5053622;28;19970;-81
2023/03/27 07:48:05;;;;;;;;;;;;;;;19.01;39.92;96541.31;5052476;28;20382;-81
2023/03/27 07:50:32;;;;;;;;;;;;;;;21.00;34.89;96538.53;5064902;28;20407;-81
2023/03/27 07:52:58;;;;;;;;;;;;;;;21.52;33.88;96537.91;5053601;28;20015;-81
2023/03/27 07:55:28;;;;;;;;;;;;;;;20.99;34.78;96541.75;5053669;28;19917;-81
2023/03/27 07:57:54;;;;;;;;;;;;;;;20.56;35.88;96553.56;5050063;28;19921;-81
2023/03/27 08:00:21;;;;;;;;;;;;;;;21.05;34.84;96548.38;5040867;28;19928;-81
2023/03/27 08:02:49;;;;;;;;;;;;;;;18.93;40.21;96554.63;5066896;28;19921;-81
2023/03/27 08:05:15;;;;;;;;;;;;;;;20.36;36.29;96544.63;5051962;28;20027;-81
2023/03/27 08:07:44;;;;;;;;;;;;;;;20.81;35.07;96542.38;5052087;28;19916;-81
2023/03/27 08:10:10;;;;;;;;;;;;;;;19.65;37.71;96548.75;5053456;28;19939;-81
2023/03/27 08:12:37;;;;;;;;;;;;;;;19.26;38.95;96550.56;5068878;28;20381;-81
2023/03/27 08:15:04;;;;;;;;;;;;;;;17.94;42.10;96559.72;5052722;28;19928;-82
2023/03/27 08:17:32;;;;;;;;;;;;;;;19.69;38.10;96566.13;5053424;28;19920;-81
2023/03/27 08:19:59;;;;;;;;;;;;;;;21.10;35.63;96556.16;5053037;28;19964;-81
2023/03/27 08:22:25;;;;;;;;;;;;;;;21.20;35.44;96557.81;5053351;28;19925;-81
2023/03/27 08:24:51;;;;;;;;;;;;;;;21.43;35.73;96559.41;5053495;28;20026;-81
2023/03/27 08:27:17;;;;;;;;;;;;;;;20.18;38.21;96572.25;5053507;28;20322;-81
2023/03/27 08:29:43;;;;;;;;;;;;;;;19.72;37.44;96563.22;5049885;28;19917;-80
2023/03/27 08:32:09;;;;;;;;;;;;;;;19.46;38.42;96566.38;5053676;28;19916;-80
2023/03/27 08:34:36;;;;;;;;;;;;;;;17.52;44.01;96571.72;5052829;28;20370;-81
2023/03/27 08:37:03;;;;;;;;;;;;;;;16.97;46.63;96558.44;5053144;28;19956;-81
2023/03/27 08:39:29;;;;;;;;;;;;;;;17.77;42.70;96560.88;5035610;28;19919;-81
2023/03/27 08:41:57;;;;;;;;;;;;;;;18.95;40.77;96568.88;5033655;28;19928;-80
2023/03/27 08:44:24;;;;;;;;;;;;;;;18.66;40.70;96570.00;5049425;28;19967;-81
2023/03/27 08:47:09;;;;;;;;;;;;;;;19.50;38.76;96567.84;5053469;28;19925;-80
2023/03/27 08:49:40;;;;;;;;;;;;;;;21.22;35.02;96564.50;5053135;28;19928;-80
2023/03/27 08:52:09;;;;;;;;;;;;;;;20.93;35.34;96569.47;5051800;28;20011;-80
2023/03/27 08:54:38;;;;;;;;;;;;;;;18.28;41.98;96569.69;5051044;28;20360;-80
2023/03/27 08:57:31;;;;;;;;;;;;;;;16.31;46.79;96583.22;5053016;28;19962;-81
2023/03/27 08:59:58;;;;;;;;;;;;;;;17.68;43.50;96579.31;5051474;28;19916;-81
2023/03/27 09:02:24;;;;;;;;;;;;;;;18.45;41.41;96574.88;5052483;28;20372;-81
2023/03/27 09:04:50;;;;;;;;;;;;;;;16.71;47.69;96580.69;5051751;28;19956;-81
2023/03/27 09:07:36;;;;;;;;;;;;;;;16.86;47.20;96588.34;5051584;28;19959;-80
2023/03/27 09:10:04;;;;;;;;;;;;;;;17.03;44.62;96583.69;5052232;28;19925;-82
2023/03/27 09:13:00;;;;;;;;;;;;;;;15.75;49.71;96589.56;5053460;28;19975;-81
2023/03/27 09:15:27;;;;;;;;;;;;;;;15.34;54.12;96595.13;5054009;28;19963;-81
2023/03/27 09:18:00;;;;;;;;;;;;;;;16.65;47.20;96585.13;5055068;28;19925;-83
2023/03/27 09:20:33;;;;;;;;;;;;;;;16.44;50.06;96583.44;5055366;28;19921;-82
2023/03/27 09:23:20;;;;;;;;;;;;;;;17.01;54.84;96578.56;5051741;28;19928;-82
2023/03/27 09:25:49;;;;;;;;;;;;;;;16.10;56.30;96591.88;5049763;28;19927;-83
2023/03/27 09:28:18;;;;;;;;;;;;;;;15.89;53.34;96589.41;5054190;28;20028;-82
2023/03/27 09:30:45;;;;;;;;;;;;;;;14.45;59.61;96586.09;5051861;28;19921;-80
2023/03/27 09:33:11;;;;;;;;;;;;;;;16.52;49.85;96596.78;5056333;28;19960;-81
2023/03/27 09:35:37;;;;;;;;;;;;;;;14.96;59.78;96621.22;5063325;28;19962;-81
2023/03/27 09:38:22;;;;;;;;;;;;;;;14.42;66.05;96597.97;5058069;28;20381;-80
2023/03/27 09:40:52;;;;;;;;;;;;;;;14.50;67.60;96607.75;5059548;28;19920;-81
2023/03/27 09:43:23;;;;;;;;;;;;;;;14.18;64.97;96605.19;5067413;28;19925;-82
2023/03/27 09:45:51;;;;;;;;;;;;;;;14.54;65.08;96611.25;5054100;28;19994;-79
2023/03/27 09:48:39;;;;;;;;;;;;;;;15.14;57.83;96610.75;5054836;28;19929;-81
2023/03/27 09:51:25;;;;;;;;;;;;;;;13.47;64.27;96624.03;5053808;28;20015;-81
2023/03/27 09:53:57;;;;;;;;;;;;;;;13.91;65.70;96625.44;5043993;28;19943;-81
2023/03/27 09:56:23;;;;;;;;;;;;;;;15.50;53.80;96633.31;5055655;28;20329;-81
2023/03/27 09:58:50;;;;;;;;;;;;;;;14.45;58.97;96633.03;5053873;28;19938;-81
2023/03/27 10:01:24;;;;;;;;;;;;;;;13.50;59.83;96628.75;5054813;28;20291;-83
2023/03/27 10:03:52;;;;;;;;;;;;;;;13.29;62.12;96642.59;5053554;28;19982;-82
2023/03/27 10:06:29;;;;;;;;;;;;;;;12.56;66.51;96644.16;5053022;28;19920;-82
2023/03/27 10:08:56;;;;;;;;;;;;;;;13.12;62.95;96635.91;5054732;28;20015;-83
2023/03/27 10:11:25;;;;;;;;;;;;;;;12.18;68.38;96659.44;5063274;28;20424;-83
2023/03/27 10:13:51;;;;;;;;;;;;;;;12.25;67.84;96661.44;5050506;28;19925;-83
2023/03/27 10:16:19;;;;;;;;;;;;;;;11.92;68.76;96665.28;5052959;28;19932;-83
2023/03/27 10:18:46;;;;;;;;;;;;;;;12.42;69.50;96669.72;5050148;28;19928;-83
2023/03/27 10:21:18;;;;;;;;;;;;;;;13.27;62.44;96668.97;5053358;28;19921;-82
2023/03/27 10:23:48;;;;;;;;;;;;;;;13.36;61.57;96670.13;5052168;28;19959;-82
2023/03/27 10:26:19;;;;;;;;;;;;;;;14.53;56.10;96670.47;5053645;28;20438;-82
2023/03/27 10:28:47;;;;;;;;;;;;;;;15.13;52.31;96667.22;5053984;28;20398;-82
2023/03/27 10:31:24;;;;;;;;;;;;;;;15.11;51.69;96667.66;5054431;28;19913;-81
2023/03/27 10:33:50;;;;;;;;;;;;;;;17.59;43.96;96673.47;5054932;28;20365;-81
2023/03/27 10:36:16;;;;;;;;;;;;;;;17.81;41.43;96674.63;5053804;28;20331;-81
2023/03/27 10:38:42;;;;;;;;;;;;;;;16.06;46.57;96681.69;5051166;28;19927;-80
2023/03/27 10:41:18;;;;;;;;;;;;;;;14.37;52.16;96695.03;5052221;28;20015;-82
2023/03/27 10:43:45;;;;;;;;;;;;;;;13.29;56.15;96680.38;5051680;28;19928;-82
2023/03/27 10:46:16;;;;;;;;;;;;;;;12.37;60.77;96710.56;5051679;28;19932;-81
2023/03/27 10:49:01;;;;;;;;;;;;;;;13.39;57.20;96693.38;5052774;28;20023;-81
2023/03/27 10:51:47;;;;;;;;;;;;;;;13.16;56.15;96700.06;5051059;28;20372;-80
2023/03/27 10:54:15;;;;;;;;;;;;;;;13.84;54.66;96686.94;5048466;28;19921;-81
2023/03/27 10:56:51;;;;;;;;;;;;;;;14.35;51.63;96695.41;5052483;28;19966;-82
2023/03/27 10:59:25;;;;;;;;;;;;;;;15.54;47.99;96697.69;5053257;28;19913;-80
2023/03/27 11:01:54;;;;;;;;;;;;;;;14.17;53.78;96708.47;5048795;28;20327;-80
2023/03/27 11:04:39;;;;;;;;;;;;;;;13.34;56.15;96707.53;5055815;28;19920;-81
2023/03/27 11:07:10;;;;;;;;;;;;;;;13.59;56.55;96727.59;5052379;28;20658;-81
2023/03/27 11:09:41;;;;;;;;;;;;;;;13.03;57.83;96726.41;5053175;28;19956;-81
2023/03/27 11:12:11;;;;;;;;;;;;;;;12.49;60.00;96735.78;5050035;28;19931;-81
2023/03/27 11:14:43;;;;;;;;;;;;;;;12.31;59.61;96759.72;5051508;28;19917;-81
2023/03/27 11:17:11;;;;;;;;;;;;;;;10.66;66.49;96764.03;5050573;28;19931;-81
2023/03/27 11:19:45;;;;;;;;;;;;;;;10.83;68.34;96774.38;5053202;28;19943;-81
2023/03/27 11:22:17;;;;;;;;;;;;;;;12.32;58.71;96777.78;5052996;28;20398;-79
2023/03/27 11:24:49;;;;;;;;;;;;;;;11.41;60.87;96788.25;5051506;28;19942;-82
2023/03/27 11:27:15;;;;;;;;;;;;;;;12.03;58.62;96784.34;5033960;28;19913;-80
2023/03/27 11:29:47;;;;;;;;;;;;;;;13.75;49.90;96796.88;5034190;28;20008;-80
2023/03/27 11:32:42;;;;;;;;;;;;;;;13.78;48.93;96791.38;5050942;28;19924;-79
2023/03/27 11:35:13;;;;;;;;;;;;;;;14.50;45.19;96812.88;5020732;28;19921;-80
2023/03/27 11:37:52;;;;;;;;;;;;;;;14.06;46.61;96806.28;5058801;28;19923;-80
2023/03/27 11:40:39;;;;;;;;;;;;;;;13.42;46.62;96828.41;5052242;28;20379;-80
2023/03/27 11:43:07;;;;;;;;;;;;;;;13.98;45.57;96833.09;5049914;28;19921;-81
2023/03/27 11:45:49;;;;;;;;;;;;;;;13.55;46.79;96843.41;5048583;28;20393;-79
2023/03/27 11:48:15;;;;;;;;;;;;;;;14.49;44.50;96830.63;5041862;28;19925;-81
2023/03/27 11:51:00;;;;;;;;;;;;;;;13.43;46.29;96845.75;5052651;28;19921;-80
2023/03/27 11:53:34;;;;;;;;;;;;;;;13.99;46.54;96859.53;5043150;28;19921;-79
2023/03/27 11:56:09;;;;;;;;;;;;;;;13.15;47.43;96857.53;5050040;28;19950;-79
2023/03/27 11:58:47;;;;;;;;;;;;;;;12.62;47.66;96879.38;5053782;28;19921;-80
2023/03/27 12:01:16;;;;;;;;;;;;;;;12.30;49.81;96887.47;5051148;28;19920;-79
2023/03/27 12:03:57;;;;;;;;;;;;;;;13.59;45.78;96899.34;5048852;28;19967;-79
2023/03/27 12:06:42;;;;;;;;;;;;;;;13.91;45.09;96888.28;5048349;28;19964;-79
2023/03/27 12:09:27;;;;;;;;;;;;;;;14.12;43.72;96915.88;5051315;28;19944;-79
2023/03/27 12:11:58;;;;;;;;;;;;;;;13.52;44.60;96921.38;5048850;28;20335;-79
2023/03/27 12:14:50;;;;;;;;;;;;;;;13.15;44.83;96931.94;5046953;28;20051;-79
2023/03/27 12:17:25;;;;;;;;;;;;;;;13.92;43.68;96931.25;5050063;28;20388;-80
2023/03/27 12:20:16;;;;;;;;;;;;;;;12.43;46.88;96954.00;5034947;28;20008;-80
2023/03/27 12:23:11;;;;;;;;;;;;;;;13.21;44.25;96976.44;5033582;28;19979;-80
2023/03/27 12:25:37;;;;;;;;;;;;;;;12.90;44.66;96972.34;5043881;28;19921;-80
2023/03/27 12:28:03;;;;;;;;;;;;;;;12.55;45.98;96983.16;5050299;28;19935;-80
2023/03/27 12:30:30;;;;;;;;;;;;;;;11.68;47.23;96993.06;5049721;28;19929;-81
2023/03/27 12:33:15;;;;;;;;;;;;;;;12.06;46.44;96976.13;5052004;28;19928;-80
2023/03/27 12:35:43;;;;;;;;;;;;;;;12.66;45.65;96995.00;5053349;28;20388;-80
2023/03/27 12:38:33;;;;;;;;;;;;;;;13.62;42.44;97005.31;5053583;28;19959;-80
2023/03/27 12:41:02;;;;;;;;;;;;;;;12.82;43.56;97010.06;5046567;28;19925;-80
2023/03/27 12:43:32;;;;;;;;;;;;;;;12.82;43.29;97017.53;5051036;28;19970;-80
2023/03/27 12:46:13;;;;;;;;;;;;;;;14.17;40.29;97023.13;5054512;28;19928;-79
2023/03/27 12:48:45;;;;;;;;;;;;;;;14.25;40.13;97033.00;5054387;28;19948;-79
2023/03/27 12:51:14;;;;;;;;;;;;;;;16.46;36.36;97035.34;5055825;28;20255;-79
2023/03/27 12:53:40;;;;;;;;;;;;;;;15.11;37.98;97042.78;5054575;28;20438;-79
2023/03/27 12:56:12;;;;;;;;;;;;;;;16.29;35.84;97044.59;5051379;28;19931;-79
2023/03/27 12:58:39;;;;;;;;;;;;;;;16.63;35.39;97053.84;5051981;28;19982;-79
2023/03/27 13:01:06;;;;;;;;;;;;;;;17.18;33.58;97060.03;5052096;28;20250;-79
2023/03/27 13:03:51;;;;;;;;;;;;;;;17.20;33.48;97068.72;5055101;28;20444;-79